createdAt,value
2023-02-16T00:00:07.357Z,0.29
2023-02-16T00:01:07.324Z,0.22
2023-02-16T00:02:07.325Z,0.22
2023-02-16T00:03:07.326Z,0.37
2023-02-16T00:04:28.282Z,0.37
2023-02-16T00:05:07.271Z,0.37
2023-02-16T00:06:07.252Z,0.44
2023-02-16T00:07:07.240Z,0.47
2023-02-16T00:08:07.229Z,0.32
2023-02-16T00:09:07.216Z,0.49
2023-02-16T00:10:28.205Z,0.41
2023-02-16T00:11:07.203Z,0.56
2023-02-16T00:12:07.190Z,0.47
2023-02-16T00:13:07.159Z,0.56
2023-02-16T00:14:07.151Z,0.52
2023-02-16T00:15:07.133Z,0.60
2023-02-16T00:16:28.127Z,0.66
2023-02-16T00:17:07.138Z,0.73
2023-02-16T00:18:07.092Z,0.68
2023-02-16T00:19:07.075Z,0.66
2023-02-16T00:20:07.074Z,0.78
2023-02-16T00:21:07.057Z,0.84
2023-02-16T00:22:28.042Z,0.83
2023-02-16T00:23:07.019Z,0.69
2023-02-16T00:24:07.094Z,0.80
2023-02-16T00:25:06.995Z,0.87
2023-02-16T00:26:06.986Z,0.77
2023-02-16T00:27:06.972Z,0.78
2023-02-16T00:28:27.976Z,0.76
2023-02-16T00:29:06.952Z,0.86
2023-02-16T00:30:07.007Z,0.92
2023-02-16T00:31:07.323Z,0.92
2023-02-16T00:32:07.080Z,0.86
2023-02-16T00:33:06.896Z,0.94
2023-02-16T00:34:27.884Z,0.88
2023-02-16T00:35:06.865Z,0.94
2023-02-16T00:36:06.856Z,0.98
2023-02-16T00:37:06.842Z,0.94
2023-02-16T00:38:06.826Z,0.86
2023-02-16T00:39:06.809Z,0.96
2023-02-16T00:40:27.815Z,0.92
2023-02-16T00:41:06.786Z,1.01
2023-02-16T00:42:06.773Z,0.96
2023-02-16T00:43:06.760Z,1.04
2023-02-16T00:44:06.750Z,1.02
2023-02-16T00:45:06.730Z,0.98
2023-02-16T00:46:27.760Z,1.05
2023-02-16T00:47:06.707Z,1.01
2023-02-16T00:48:06.694Z,1.12
2023-02-16T00:49:06.680Z,1.14
2023-02-16T00:50:06.664Z,1.12
2023-02-16T00:51:17.007Z,1.10
2023-02-16T00:52:27.644Z,1.05
2023-02-16T00:53:06.629Z,1.01
2023-02-16T00:54:06.619Z,1.05
2023-02-16T00:55:06.605Z,1.10
2023-02-16T00:56:06.583Z,1.10
2023-02-16T00:57:06.576Z,1.02
2023-02-16T00:58:27.564Z,1.08
2023-02-16T00:59:06.546Z,1.06
2023-02-16T01:00:06.545Z,1.06
2023-02-16T01:01:06.732Z,1.10
2023-02-16T01:02:06.505Z,1.04
2023-02-16T01:03:06.500Z,1.13
2023-02-16T01:04:27.529Z,1.02
2023-02-16T01:05:06.469Z,1.08
2023-02-16T01:06:06.449Z,1.02
2023-02-16T01:07:06.446Z,1.16
2023-02-16T01:08:06.422Z,1.01
2023-02-16T01:09:06.436Z,1.10
2023-02-16T01:10:27.395Z,1.02
2023-02-16T01:11:06.589Z,1.08
2023-02-16T01:12:06.366Z,0.98
2023-02-16T01:13:06.379Z,1.08
2023-02-16T01:14:06.340Z,1.01
2023-02-16T01:15:06.329Z,0.96
2023-02-16T01:16:27.320Z,0.96
2023-02-16T01:17:06.303Z,0.94
2023-02-16T01:18:06.287Z,0.81
2023-02-16T01:19:06.278Z,0.94
2023-02-16T01:20:06.353Z,0.92
2023-02-16T01:21:06.245Z,0.76
2023-02-16T01:22:27.236Z,0.81
2023-02-16T01:23:06.224Z,0.81
2023-02-16T01:24:06.207Z,0.78
2023-02-16T01:25:06.195Z,0.87
2023-02-16T01:26:06.175Z,0.80
2023-02-16T01:27:06.166Z,0.92
2023-02-16T01:28:27.159Z,0.91
2023-02-16T01:29:06.140Z,0.88
2023-02-16T01:30:06.161Z,0.81
2023-02-16T01:31:06.422Z,0.92
2023-02-16T01:32:06.259Z,0.81
2023-02-16T01:33:06.095Z,0.78
2023-02-16T01:34:27.079Z,0.83
2023-02-16T01:35:06.060Z,0.81
2023-02-16T01:36:06.044Z,0.83
2023-02-16T01:37:06.092Z,0.74
2023-02-16T01:38:06.050Z,0.74
2023-02-16T01:39:06.007Z,0.87
2023-02-16T01:40:27.000Z,0.81
2023-02-16T01:41:06.204Z,0.81
2023-02-16T01:42:05.983Z,0.76
2023-02-16T01:43:05.958Z,0.76
2023-02-16T01:44:05.946Z,0.74
2023-02-16T01:45:05.933Z,0.73
2023-02-16T01:46:26.948Z,0.70
2023-02-16T01:47:05.901Z,0.69
2023-02-16T01:48:05.897Z,0.69
2023-02-16T01:49:05.882Z,0.65
2023-02-16T01:50:05.864Z,0.66
2023-02-16T01:51:05.880Z,0.69
2023-02-16T01:52:26.835Z,0.63
2023-02-16T01:53:05.819Z,0.58
2023-02-16T01:54:05.994Z,0.58
2023-02-16T01:55:05.796Z,0.60
2023-02-16T01:56:05.777Z,0.58
2023-02-16T01:57:05.772Z,0.49
2023-02-16T01:58:26.752Z,0.56
2023-02-16T01:59:05.738Z,0.56
2023-02-16T02:00:05.730Z,0.49
2023-02-16T02:01:05.939Z,0.56
2023-02-16T02:02:05.697Z,0.46
2023-02-16T02:03:05.749Z,0.49
2023-02-16T02:04:26.678Z,0.58
2023-02-16T02:05:05.663Z,0.44
2023-02-16T02:06:05.645Z,0.47
2023-02-16T02:07:05.635Z,0.43
2023-02-16T02:08:05.614Z,0.44
2023-02-16T02:09:05.602Z,0.47
2023-02-16T02:10:26.604Z,0.44
2023-02-16T02:11:05.828Z,0.44
2023-02-16T02:12:05.574Z,0.32
2023-02-16T02:13:05.581Z,0.39
2023-02-16T02:14:05.535Z,0.40
2023-02-16T02:15:05.530Z,0.34
2023-02-16T02:16:26.578Z,0.39
2023-02-16T02:17:05.502Z,0.22
2023-02-16T02:18:05.482Z,0.25
2023-02-16T02:19:05.475Z,0.22
2023-02-16T02:20:05.465Z,0.19
2023-02-16T02:21:05.773Z,0.23
2023-02-16T02:22:26.428Z,0.23
2023-02-16T02:23:05.448Z,0.18
2023-02-16T02:24:05.397Z,0.25
2023-02-16T02:25:05.393Z,0.15
2023-02-16T02:26:05.374Z,0.18
2023-02-16T02:27:05.366Z,0.18
2023-02-16T02:28:26.365Z,0.19
2023-02-16T02:29:05.337Z,0.22
2023-02-16T02:30:05.360Z,0.19
2023-02-16T02:31:05.715Z,0.12
2023-02-16T02:32:05.326Z,0.12
2023-02-16T02:33:05.284Z,0.12
2023-02-16T02:34:26.271Z,0.11
2023-02-16T02:35:05.251Z,0.07
2023-02-16T02:36:05.235Z,0.16
2023-02-16T02:37:05.229Z,0.16
2023-02-16T02:38:05.208Z,0.00
2023-02-16T02:39:05.197Z,0.03
2023-02-16T02:40:26.189Z,0.00
2023-02-16T02:41:06.420Z,0.04
2023-02-16T02:42:05.186Z,0.00
2023-02-16T02:43:05.144Z,-0.02
2023-02-16T02:44:05.139Z,0.00
2023-02-16T02:45:05.129Z,-0.02
2023-02-16T02:46:26.165Z,-0.02
2023-02-16T02:47:05.216Z,-0.02
2023-02-16T02:48:05.073Z,-0.02
2023-02-16T02:49:05.071Z,-0.06
2023-02-16T02:50:05.045Z,-0.06
2023-02-16T02:51:05.307Z,-0.13
2023-02-16T02:52:26.033Z,-0.02
2023-02-16T02:53:05.009Z,-0.14
2023-02-16T02:54:04.988Z,-0.10
2023-02-16T02:55:04.983Z,-0.17
2023-02-16T02:56:04.959Z,-0.10
2023-02-16T02:57:04.955Z,-0.06
2023-02-16T02:58:25.937Z,-0.07
2023-02-16T02:59:04.929Z,-0.03
2023-02-16T03:00:04.907Z,-0.03
2023-02-16T03:01:05.405Z,-0.02
2023-02-16T03:02:04.995Z,-0.06
2023-02-16T03:03:04.877Z,-0.17
2023-02-16T03:04:25.870Z,-0.20
2023-02-16T03:05:04.845Z,-0.14
2023-02-16T03:06:04.828Z,-0.11
2023-02-16T03:07:04.811Z,-0.14
2023-02-16T03:08:04.803Z,-0.17
2023-02-16T03:09:04.787Z,-0.17
2023-02-16T03:10:25.772Z,-0.11
2023-02-16T03:11:05.024Z,-0.13
2023-02-16T03:12:04.744Z,-0.18
2023-02-16T03:13:04.729Z,-0.15
2023-02-16T03:14:04.719Z,-0.15
2023-02-16T03:15:04.702Z,-0.26
2023-02-16T03:16:25.760Z,-0.14
2023-02-16T03:17:04.676Z,-0.17
2023-02-16T03:18:04.657Z,-0.15
2023-02-16T03:19:04.653Z,-0.18
2023-02-16T03:20:04.629Z,-0.21
2023-02-16T03:21:04.882Z,-0.17
2023-02-16T03:22:25.623Z,-0.14
2023-02-16T03:23:04.602Z,-0.14
2023-02-16T03:24:04.577Z,-0.18
2023-02-16T03:25:04.562Z,-0.14
2023-02-16T03:26:04.543Z,-0.14
2023-02-16T03:27:04.533Z,-0.17
2023-02-16T03:28:25.526Z,-0.17
2023-02-16T03:29:04.511Z,-0.18
2023-02-16T03:30:04.513Z,-0.14
2023-02-16T03:31:04.871Z,-0.15
2023-02-16T03:32:04.523Z,-0.14
2023-02-16T03:33:04.448Z,-0.18
2023-02-16T03:34:25.437Z,-0.14
2023-02-16T03:35:04.420Z,-0.17
2023-02-16T03:36:04.412Z,-0.11
2023-02-16T03:37:04.392Z,-0.11
2023-02-16T03:38:04.378Z,-0.17
2023-02-16T03:39:04.369Z,-0.20
2023-02-16T03:40:25.359Z,-0.18
2023-02-16T03:41:04.583Z,-0.13
2023-02-16T03:42:04.469Z,-0.13
2023-02-16T03:43:04.307Z,-0.18
2023-02-16T03:44:04.292Z,-0.14
2023-02-16T03:45:04.279Z,-0.15
2023-02-16T03:46:25.273Z,-0.15
2023-02-16T03:47:04.252Z,-0.15
2023-02-16T03:48:04.246Z,-0.17
2023-02-16T03:49:04.226Z,-0.14
2023-02-16T03:50:04.285Z,-0.15
2023-02-16T03:51:04.522Z,-0.17
2023-02-16T03:52:25.192Z,-0.02
2023-02-16T03:53:04.167Z,-0.11
2023-02-16T03:54:04.175Z,-0.18
2023-02-16T03:55:04.146Z,-0.14
2023-02-16T03:56:04.128Z,-0.21
2023-02-16T03:57:04.128Z,-0.20
2023-02-16T03:58:25.114Z,-0.13
2023-02-16T03:59:04.083Z,-0.14
2023-02-16T04:00:04.090Z,-0.10
2023-02-16T04:01:04.281Z,-0.13
2023-02-16T04:02:04.066Z,-0.18
2023-02-16T04:03:04.044Z,-0.25
2023-02-16T04:04:25.092Z,-0.23
2023-02-16T04:05:04.006Z,-0.18
2023-02-16T04:06:03.992Z,-0.14
2023-02-16T04:07:03.977Z,-0.13
2023-02-16T04:08:03.971Z,-0.15
2023-02-16T04:09:03.954Z,-0.18
2023-02-16T04:10:24.940Z,-0.18
2023-02-16T04:11:04.194Z,-0.18
2023-02-16T04:12:03.914Z,-0.11
2023-02-16T04:13:03.901Z,-0.18
2023-02-16T04:14:03.886Z,-0.13
2023-02-16T04:15:03.911Z,-0.17
2023-02-16T04:16:24.959Z,-0.10
2023-02-16T04:17:03.854Z,-0.08
2023-02-16T04:18:03.839Z,-0.13
2023-02-16T04:19:03.808Z,-0.10
2023-02-16T04:20:03.802Z,-0.03
2023-02-16T04:21:04.103Z,-0.07
2023-02-16T04:22:24.788Z,-0.06
2023-02-16T04:23:03.767Z,-0.02
2023-02-16T04:24:03.744Z,-0.11
2023-02-16T04:25:03.730Z,-0.03
2023-02-16T04:26:03.712Z,-0.13
2023-02-16T04:27:03.705Z,-0.10
2023-02-16T04:28:24.693Z,-0.11
2023-02-16T04:29:03.678Z,-0.15
2023-02-16T04:30:03.696Z,-0.07
2023-02-16T04:31:04.045Z,-0.11
2023-02-16T04:32:03.704Z,0.00
2023-02-16T04:33:03.619Z,-0.10
2023-02-16T04:34:24.604Z,-0.15
2023-02-16T04:35:03.588Z,-0.13
2023-02-16T04:36:03.595Z,-0.15
2023-02-16T04:37:03.564Z,-0.15
2023-02-16T04:38:03.552Z,-0.03
2023-02-16T04:39:03.537Z,-0.14
2023-02-16T04:40:24.552Z,-0.06
2023-02-16T04:41:03.793Z,-0.11
2023-02-16T04:42:03.484Z,-0.18
2023-02-16T04:43:03.480Z,-0.15
2023-02-16T04:44:03.460Z,-0.07
2023-02-16T04:45:03.449Z,-0.14
2023-02-16T04:46:24.516Z,-0.07
2023-02-16T04:47:03.422Z,-0.07
2023-02-16T04:48:03.402Z,-0.02
2023-02-16T04:49:03.400Z,-0.13
2023-02-16T04:50:03.375Z,-0.02
2023-02-16T04:51:03.461Z,0.00
2023-02-16T04:52:24.350Z,0.03
2023-02-16T04:53:03.333Z,-0.03
2023-02-16T04:54:03.321Z,0.01
2023-02-16T04:55:03.332Z,-0.02
2023-02-16T04:56:03.295Z,0.04
2023-02-16T04:57:03.286Z,0.01
2023-02-16T04:58:24.264Z,0.12
2023-02-16T04:59:03.251Z,0.08
2023-02-16T05:00:03.236Z,0.16
2023-02-16T05:01:03.900Z,0.11
2023-02-16T05:02:03.210Z,0.11
2023-02-16T05:03:03.209Z,0.15
2023-02-16T05:04:24.206Z,0.07
2023-02-16T05:05:03.176Z,0.15
2023-02-16T05:06:03.174Z,0.16
2023-02-16T05:07:03.143Z,0.16
2023-02-16T05:08:03.124Z,0.12
2023-02-16T05:09:03.110Z,0.11
2023-02-16T05:10:24.105Z,0.12
2023-02-16T05:11:03.346Z,0.16
2023-02-16T05:12:03.084Z,0.21
2023-02-16T05:13:03.054Z,0.18
2023-02-16T05:14:03.040Z,0.23
2023-02-16T05:15:03.030Z,0.25
2023-02-16T05:16:24.017Z,0.25
2023-02-16T05:17:02.998Z,0.23
2023-02-16T05:18:02.985Z,0.19
2023-02-16T05:19:02.973Z,0.25
2023-02-16T05:20:02.951Z,0.25
2023-02-16T05:21:03.240Z,0.25
2023-02-16T05:22:23.964Z,0.19
2023-02-16T05:23:02.914Z,0.15
2023-02-16T05:24:02.899Z,0.11
2023-02-16T05:25:02.898Z,0.18
2023-02-16T05:26:02.880Z,0.10
2023-02-16T05:27:02.858Z,0.05
2023-02-16T05:28:23.905Z,0.10
2023-02-16T05:29:02.837Z,0.05
2023-02-16T05:30:02.862Z,0.00
2023-02-16T05:31:03.198Z,0.07
2023-02-16T05:32:04.729Z,0.03
2023-02-16T05:33:02.777Z,0.07
2023-02-16T05:34:23.762Z,0.12
2023-02-16T05:35:02.747Z,0.05
2023-02-16T05:36:02.739Z,0.12
2023-02-16T05:37:02.728Z,0.11
2023-02-16T05:38:02.704Z,0.16
2023-02-16T05:39:02.691Z,0.15
2023-02-16T05:40:23.682Z,0.16
2023-02-16T05:41:02.879Z,0.12
2023-02-16T05:42:02.647Z,0.16
2023-02-16T05:43:02.644Z,0.22
2023-02-16T05:44:02.620Z,0.19
2023-02-16T05:45:02.623Z,0.22
2023-02-16T05:46:23.639Z,0.19
2023-02-16T05:47:02.582Z,0.22
2023-02-16T05:48:02.568Z,0.29
2023-02-16T05:49:02.554Z,0.23
2023-02-16T05:50:02.541Z,0.19
2023-02-16T05:51:02.944Z,0.23
2023-02-16T05:52:23.517Z,0.18
2023-02-16T05:53:02.500Z,0.25
2023-02-16T05:54:02.483Z,0.28
2023-02-16T05:55:02.476Z,0.25
2023-02-16T05:56:02.457Z,0.21
2023-02-16T05:57:02.445Z,0.25
2023-02-16T05:58:23.452Z,0.18
2023-02-16T05:59:02.426Z,0.23
2023-02-16T06:00:02.408Z,0.19
2023-02-16T06:01:02.587Z,0.21
2023-02-16T06:02:02.388Z,0.19
2023-02-16T06:03:02.363Z,0.25
2023-02-16T06:04:23.352Z,0.19
2023-02-16T06:05:02.342Z,0.16
2023-02-16T06:06:02.315Z,0.28
2023-02-16T06:07:02.315Z,0.25
2023-02-16T06:08:02.291Z,0.25
2023-02-16T06:09:02.286Z,0.23
2023-02-16T06:10:23.268Z,0.23
2023-02-16T06:11:02.883Z,0.22
2023-02-16T06:12:02.237Z,0.18
2023-02-16T06:13:02.221Z,0.22
2023-02-16T06:14:02.205Z,0.22
2023-02-16T06:15:02.208Z,0.25
2023-02-16T06:16:23.231Z,0.15
2023-02-16T06:17:02.165Z,0.11
2023-02-16T06:18:02.152Z,0.12
2023-02-16T06:19:02.153Z,0.07
2023-02-16T06:20:02.152Z,0.11
2023-02-16T06:21:02.317Z,0.11
2023-02-16T06:22:23.101Z,0.08
2023-02-16T06:23:02.083Z,0.11
2023-02-16T06:24:02.073Z,0.12
2023-02-16T06:25:02.055Z,0.11
2023-02-16T06:26:02.041Z,0.15
2023-02-16T06:27:02.029Z,0.19
2023-02-16T06:28:23.018Z,0.18
2023-02-16T06:29:02.005Z,0.25
2023-02-16T06:30:02.018Z,0.19
2023-02-16T06:31:02.421Z,0.12
2023-02-16T06:32:02.192Z,0.16
2023-02-16T06:33:01.944Z,0.19
2023-02-16T06:34:22.930Z,0.15
2023-02-16T06:35:01.917Z,0.23
2023-02-16T06:36:01.918Z,0.23
2023-02-16T06:37:01.882Z,0.21
2023-02-16T06:38:01.872Z,0.34
2023-02-16T06:39:01.859Z,0.37
2023-02-16T06:40:22.861Z,0.29
2023-02-16T06:41:02.013Z,0.28
2023-02-16T06:42:01.811Z,0.37
2023-02-16T06:43:01.806Z,0.28
2023-02-16T06:44:01.788Z,0.44
2023-02-16T06:45:01.774Z,0.46
2023-02-16T06:46:22.777Z,0.44
2023-02-16T06:47:01.749Z,0.58
2023-02-16T06:48:01.735Z,0.62
2023-02-16T06:49:01.719Z,0.56
2023-02-16T06:50:01.701Z,0.63
2023-02-16T06:51:02.049Z,0.70
2023-02-16T06:52:22.685Z,0.73
2023-02-16T06:53:01.666Z,0.73
2023-02-16T06:54:01.653Z,0.70
2023-02-16T06:55:01.627Z,0.81
2023-02-16T06:56:01.633Z,0.80
2023-02-16T06:57:01.612Z,0.80
2023-02-16T06:58:22.599Z,0.81
2023-02-16T06:59:01.604Z,0.83
2023-02-16T07:00:01.636Z,0.87
2023-02-16T07:01:01.671Z,0.95
2023-02-16T07:02:01.547Z,0.94
2023-02-16T07:03:01.542Z,0.94
2023-02-16T07:04:22.514Z,1.01
2023-02-16T07:05:01.489Z,1.01
2023-02-16T07:06:01.477Z,1.13
2023-02-16T07:07:01.462Z,1.02
2023-02-16T07:08:01.464Z,1.17
2023-02-16T07:09:01.449Z,1.12
2023-02-16T07:10:22.430Z,1.16
2023-02-16T07:11:01.407Z,1.12
2023-02-16T07:12:01.408Z,1.30
2023-02-16T07:13:01.391Z,1.30
2023-02-16T07:14:01.372Z,1.31
2023-02-16T07:15:01.360Z,1.28
2023-02-16T07:16:22.398Z,1.38
2023-02-16T07:17:01.328Z,1.38
2023-02-16T07:18:01.318Z,1.40
2023-02-16T07:19:01.309Z,1.35
2023-02-16T07:20:01.301Z,1.49
2023-02-16T07:21:01.342Z,1.50
2023-02-16T07:22:22.263Z,1.41
2023-02-16T07:23:01.242Z,1.56
2023-02-16T07:24:01.238Z,1.45
2023-02-16T07:25:01.216Z,1.58
2023-02-16T07:26:01.207Z,1.70
2023-02-16T07:27:01.192Z,1.66
2023-02-16T07:28:22.185Z,1.67
2023-02-16T07:29:01.167Z,1.73
2023-02-16T07:30:01.192Z,1.68
2023-02-16T07:31:01.164Z,1.74
2023-02-16T07:32:01.230Z,1.78
2023-02-16T07:33:01.116Z,1.74
2023-02-16T07:34:22.206Z,1.78
2023-02-16T07:35:01.089Z,1.84
2023-02-16T07:36:01.080Z,1.84
2023-02-16T07:37:01.061Z,1.87
2023-02-16T07:38:01.045Z,1.88
2023-02-16T07:39:01.040Z,1.87
2023-02-16T07:40:22.032Z,1.92
2023-02-16T07:41:01.004Z,1.99
2023-02-16T07:42:00.989Z,2.04
2023-02-16T07:43:00.998Z,2.10
2023-02-16T07:44:00.964Z,2.14
2023-02-16T07:45:00.945Z,2.17
2023-02-16T07:46:22.030Z,2.24
2023-02-16T07:47:00.937Z,2.28
2023-02-16T07:48:00.919Z,2.42
2023-02-16T07:49:00.890Z,2.44
2023-02-16T07:50:00.888Z,2.43
2023-02-16T07:51:00.862Z,2.38
2023-02-16T07:52:21.866Z,2.53
2023-02-16T07:53:00.839Z,2.56
2023-02-16T07:54:00.843Z,2.57
2023-02-16T07:55:00.824Z,2.68
2023-02-16T07:56:00.810Z,2.72
2023-02-16T07:57:00.786Z,2.74
2023-02-16T07:58:21.796Z,2.72
2023-02-16T07:59:00.763Z,2.77
2023-02-16T08:00:00.752Z,2.90
2023-02-16T08:01:00.742Z,2.89
2023-02-16T08:02:00.839Z,2.92
2023-02-16T08:03:01.098Z,3.00
2023-02-16T08:04:21.706Z,3.01
2023-02-16T08:05:00.685Z,3.01
2023-02-16T08:06:00.677Z,3.10
2023-02-16T08:07:00.656Z,3.08
2023-02-16T08:08:00.649Z,3.23
2023-02-16T08:09:00.643Z,3.21
2023-02-16T08:10:21.632Z,3.23
2023-02-16T08:11:00.608Z,3.18
2023-02-16T08:12:00.596Z,3.14
2023-02-16T08:13:00.582Z,3.26
2023-02-16T08:14:00.572Z,3.31
2023-02-16T08:15:00.570Z,3.16
2023-02-16T08:16:21.653Z,3.29
2023-02-16T08:17:00.552Z,3.26
2023-02-16T08:18:00.521Z,3.26
2023-02-16T08:19:00.507Z,3.32
2023-02-16T08:20:00.513Z,3.29
2023-02-16T08:21:04.444Z,3.26
2023-02-16T08:22:21.483Z,3.36
2023-02-16T08:23:00.465Z,3.29
2023-02-16T08:24:00.448Z,3.34
2023-02-16T08:25:00.435Z,3.34
2023-02-16T08:26:00.458Z,3.41
2023-02-16T08:27:00.410Z,3.48
2023-02-16T08:28:21.405Z,3.51
2023-02-16T08:29:00.385Z,3.60
2023-02-16T08:30:00.390Z,3.58
2023-02-16T08:31:00.370Z,3.62
2023-02-16T08:32:00.436Z,3.68
2023-02-16T08:33:00.332Z,3.68
2023-02-16T08:34:21.325Z,3.77
2023-02-16T08:35:00.313Z,3.80
2023-02-16T08:36:00.295Z,3.78
2023-02-16T08:37:00.284Z,3.84
2023-02-16T08:38:00.267Z,3.81
2023-02-16T08:39:00.260Z,3.92
2023-02-16T08:40:21.249Z,3.99
2023-02-16T08:41:00.237Z,3.91
2023-02-16T08:42:00.219Z,3.91
2023-02-16T08:43:00.212Z,4.02
2023-02-16T08:44:00.205Z,4.05
2023-02-16T08:45:00.198Z,4.06
2023-02-16T08:46:21.224Z,4.10
2023-02-16T08:47:00.204Z,4.10
2023-02-16T08:48:00.164Z,4.17
2023-02-16T08:49:00.184Z,4.16
2023-02-16T08:50:00.137Z,4.24
2023-02-16T08:51:00.108Z,4.22
2023-02-16T08:52:21.094Z,4.31
2023-02-16T08:53:00.091Z,4.32
2023-02-16T08:54:00.153Z,4.24
2023-02-16T08:55:00.073Z,4.37
2023-02-16T08:56:00.039Z,4.37
2023-02-16T08:57:00.048Z,4.37
2023-02-16T08:58:21.021Z,4.44
2023-02-16T08:59:00.000Z,4.38
2023-02-16T08:59:59.989Z,4.42
2023-02-16T09:01:00.003Z,4.48
2023-02-16T09:02:00.090Z,4.66
2023-02-16T09:02:59.956Z,4.56
2023-02-16T09:04:20.945Z,4.66
2023-02-16T09:04:59.931Z,4.71
2023-02-16T09:05:59.999Z,4.67
2023-02-16T09:06:59.917Z,4.74
2023-02-16T09:07:59.894Z,4.71
2023-02-16T09:08:59.895Z,4.78
2023-02-16T09:10:21.315Z,4.93
2023-02-16T09:10:59.858Z,4.97
2023-02-16T09:11:59.851Z,5.04
2023-02-16T09:12:59.833Z,4.89
2023-02-16T09:13:59.916Z,4.99
2023-02-16T09:14:59.812Z,5.04
2023-02-16T09:16:20.915Z,5.12
2023-02-16T09:16:59.847Z,5.18
2023-02-16T09:17:59.767Z,5.11
2023-02-16T09:18:59.779Z,5.20
2023-02-16T09:19:59.751Z,5.18
2023-02-16T09:20:59.737Z,5.28
2023-02-16T09:22:20.734Z,5.28
2023-02-16T09:22:59.717Z,5.33
2023-02-16T09:23:59.709Z,5.38
2023-02-16T09:24:59.691Z,5.36
2023-02-16T09:25:59.672Z,5.44
2023-02-16T09:26:59.669Z,5.44
2023-02-16T09:28:20.662Z,5.46
2023-02-16T09:28:59.647Z,5.56
2023-02-16T09:29:59.663Z,5.65
2023-02-16T09:30:59.681Z,5.69
2023-02-16T09:31:59.632Z,5.69
2023-02-16T09:32:59.598Z,5.75
2023-02-16T09:34:20.596Z,5.75
2023-02-16T09:34:59.571Z,5.89
2023-02-16T09:35:59.561Z,5.87
2023-02-16T09:36:59.552Z,5.87
2023-02-16T09:37:59.534Z,5.89
2023-02-16T09:38:59.569Z,5.97
2023-02-16T09:40:20.524Z,5.98
2023-02-16T09:40:59.521Z,6.05
2023-02-16T09:41:59.590Z,6.05
2023-02-16T09:42:59.477Z,6.12
2023-02-16T09:43:59.466Z,6.27
2023-02-16T09:44:59.452Z,6.24
2023-02-16T09:46:22.310Z,6.30
2023-02-16T09:46:59.431Z,6.30
2023-02-16T09:47:59.422Z,6.31
2023-02-16T09:48:59.406Z,6.24
2023-02-16T09:49:59.407Z,6.26
2023-02-16T09:50:59.382Z,6.39
2023-02-16T09:52:20.384Z,6.42
2023-02-16T09:52:59.364Z,6.42
2023-02-16T09:53:59.349Z,6.44
2023-02-16T09:54:59.336Z,6.45
2023-02-16T09:55:59.330Z,6.52
2023-02-16T09:56:59.315Z,6.54
2023-02-16T09:58:20.319Z,6.51
2023-02-16T09:58:59.293Z,6.66
2023-02-16T09:59:59.285Z,6.72
2023-02-16T10:00:59.296Z,6.77
2023-02-16T10:01:59.256Z,6.74
2023-02-16T10:02:59.257Z,6.87
2023-02-16T10:04:20.246Z,6.87
2023-02-16T10:04:59.229Z,6.84
2023-02-16T10:05:59.218Z,6.89
2023-02-16T10:06:59.204Z,6.93
2023-02-16T10:07:59.193Z,6.97
2023-02-16T10:08:59.176Z,7.03
2023-02-16T10:10:20.297Z,7.10
2023-02-16T10:10:59.163Z,7.15
2023-02-16T10:11:59.152Z,7.15
2023-02-16T10:12:59.136Z,7.17
2023-02-16T10:13:59.127Z,7.15
2023-02-16T10:14:59.133Z,7.24
2023-02-16T10:16:20.112Z,7.29
2023-02-16T10:16:59.093Z,7.25
2023-02-16T10:17:59.085Z,7.25
2023-02-16T10:18:59.077Z,7.32
2023-02-16T10:19:59.065Z,7.40
2023-02-16T10:20:59.046Z,7.50
2023-02-16T10:22:20.050Z,7.54
2023-02-16T10:22:59.052Z,7.54
2023-02-16T10:23:59.016Z,7.54
2023-02-16T10:24:59.005Z,7.51
2023-02-16T10:25:59.005Z,7.60
2023-02-16T10:26:58.992Z,7.61
2023-02-16T10:28:22.467Z,7.66
2023-02-16T10:28:58.965Z,7.73
2023-02-16T10:29:58.991Z,7.80
2023-02-16T10:30:58.987Z,7.73
2023-02-16T10:31:59.057Z,7.77
2023-02-16T10:32:58.920Z,7.79
2023-02-16T10:34:22.567Z,7.79
2023-02-16T10:34:58.921Z,7.95
2023-02-16T10:35:58.891Z,8.00
2023-02-16T10:36:58.999Z,7.97
2023-02-16T10:37:58.874Z,8.09
2023-02-16T10:38:58.862Z,8.13
2023-02-16T10:40:22.868Z,8.20
2023-02-16T10:40:58.844Z,8.38
2023-02-16T10:41:58.931Z,8.45
2023-02-16T10:42:58.833Z,8.52
2023-02-16T10:43:58.813Z,8.56
2023-02-16T10:44:58.800Z,8.64
2023-02-16T10:46:19.843Z,8.66
2023-02-16T10:46:58.776Z,8.71
2023-02-16T10:47:58.786Z,8.76
2023-02-16T10:48:58.766Z,8.78
2023-02-16T10:49:58.757Z,8.82
2023-02-16T10:50:58.742Z,8.85
2023-02-16T10:52:19.738Z,8.76
2023-02-16T10:52:58.720Z,8.81
2023-02-16T10:53:58.711Z,8.82
2023-02-16T10:54:58.720Z,8.79
2023-02-16T10:55:58.699Z,8.71
2023-02-16T10:56:58.684Z,8.84
2023-02-16T10:58:21.703Z,8.81
2023-02-16T10:58:58.659Z,8.82
2023-02-16T10:59:58.651Z,8.87
2023-02-16T11:00:58.640Z,8.85
2023-02-16T11:01:58.631Z,8.84
2023-02-16T11:02:58.619Z,8.99
2023-02-16T11:04:21.974Z,8.91
2023-02-16T11:04:58.602Z,8.89
2023-02-16T11:05:58.593Z,8.94
2023-02-16T11:06:58.580Z,8.92
2023-02-16T11:07:58.574Z,8.99
2023-02-16T11:08:58.652Z,8.94
2023-02-16T11:10:19.574Z,8.95
2023-02-16T11:10:58.545Z,9.00
2023-02-16T11:11:58.535Z,9.03
2023-02-16T11:12:58.529Z,8.97
2023-02-16T11:13:58.513Z,9.04
2023-02-16T11:14:58.512Z,9.04
2023-02-16T11:16:19.611Z,9.02
2023-02-16T11:16:58.489Z,9.00
2023-02-16T11:17:58.475Z,9.03
2023-02-16T11:18:58.464Z,9.10
2023-02-16T11:20:01.650Z,9.16
2023-02-16T11:20:58.444Z,9.23
2023-02-16T11:22:19.448Z,9.19
2023-02-16T11:22:58.427Z,9.23
2023-02-16T11:23:58.420Z,9.23
2023-02-16T11:24:58.411Z,9.26
2023-02-16T11:25:58.399Z,9.28
2023-02-16T11:26:58.532Z,9.32
2023-02-16T11:28:19.389Z,9.32
2023-02-16T11:28:58.371Z,9.37
2023-02-16T11:29:58.382Z,9.46
2023-02-16T11:30:58.420Z,9.37
2023-02-16T11:31:58.467Z,9.41
2023-02-16T11:32:58.336Z,9.43
2023-02-16T11:34:19.329Z,9.40
2023-02-16T11:34:58.314Z,9.48
2023-02-16T11:35:58.314Z,9.40
2023-02-16T11:36:58.297Z,9.47
2023-02-16T11:37:58.285Z,9.54
2023-02-16T11:38:58.274Z,9.41
2023-02-16T11:40:19.284Z,9.48
2023-02-16T11:40:58.261Z,9.41
2023-02-16T11:41:58.248Z,9.47
2023-02-16T11:42:58.234Z,9.50
2023-02-16T11:43:58.224Z,9.54
2023-02-16T11:44:58.214Z,9.48
2023-02-16T11:46:19.267Z,9.51
2023-02-16T11:46:58.188Z,9.51
2023-02-16T11:47:58.184Z,9.68
2023-02-16T11:48:58.175Z,9.65
2023-02-16T11:49:58.161Z,9.68
2023-02-16T11:50:58.164Z,9.73
2023-02-16T11:52:19.148Z,9.69
2023-02-16T11:52:58.134Z,9.73
2023-02-16T11:53:58.129Z,9.82
2023-02-16T11:54:58.115Z,9.84
2023-02-16T11:55:58.109Z,9.94
2023-02-16T11:56:58.099Z,9.94
2023-02-16T11:58:19.101Z,10.12
2023-02-16T11:58:58.079Z,10.01
2023-02-16T11:59:58.071Z,10.09
2023-02-16T12:00:58.055Z,10.07
2023-02-16T12:01:58.051Z,10.10
2023-02-16T12:02:58.041Z,10.10
2023-02-16T12:04:19.040Z,10.10
2023-02-16T12:04:58.094Z,10.13
2023-02-16T12:05:58.016Z,10.12
2023-02-16T12:06:58.008Z,10.17
2023-02-16T12:07:57.997Z,10.25
2023-02-16T12:08:57.990Z,10.26
2023-02-16T12:10:18.986Z,10.26
2023-02-16T12:10:57.968Z,10.30
2023-02-16T12:11:58.005Z,10.42
2023-02-16T12:12:57.948Z,10.26
2023-02-16T12:13:58.051Z,10.25
2023-02-16T12:14:57.931Z,10.30
2023-02-16T12:16:19.003Z,10.28
2023-02-16T12:16:57.917Z,10.33
2023-02-16T12:17:57.909Z,10.31
2023-02-16T12:18:57.902Z,10.46
2023-02-16T12:19:57.892Z,10.41
2023-02-16T12:20:57.876Z,10.41
2023-02-16T12:22:18.876Z,10.49
2023-02-16T12:22:57.862Z,10.44
2023-02-16T12:23:57.855Z,10.64
2023-02-16T12:24:57.853Z,10.56
2023-02-16T12:25:57.849Z,10.54
2023-02-16T12:26:57.825Z,10.56
2023-02-16T12:28:18.818Z,10.67
2023-02-16T12:28:57.804Z,10.74
2023-02-16T12:29:57.816Z,10.78
2023-02-16T12:30:57.842Z,10.75
2023-02-16T12:31:57.825Z,10.76
2023-02-16T12:32:57.818Z,10.79
2023-02-16T12:34:18.790Z,10.79
2023-02-16T12:34:57.755Z,10.84
2023-02-16T12:35:57.759Z,10.75
2023-02-16T12:36:57.746Z,10.87
2023-02-16T12:37:57.733Z,10.90
2023-02-16T12:38:57.714Z,10.92
2023-02-16T12:40:18.718Z,11.02
2023-02-16T12:40:58.543Z,10.94
2023-02-16T12:41:57.694Z,11.00
2023-02-16T12:42:57.680Z,11.05
2023-02-16T12:43:57.682Z,10.92
2023-02-16T12:44:57.670Z,10.96
2023-02-16T12:46:18.674Z,10.92
2023-02-16T12:46:57.644Z,10.94
2023-02-16T12:47:57.651Z,10.86
2023-02-16T12:48:57.641Z,10.89
2023-02-16T12:49:57.624Z,10.81
2023-02-16T12:50:57.609Z,10.74
2023-02-16T12:52:18.608Z,10.72
2023-02-16T12:52:57.597Z,10.76
2023-02-16T12:53:57.591Z,10.69
2023-02-16T12:54:57.572Z,10.72
2023-02-16T12:55:57.570Z,10.71
2023-02-16T12:56:57.558Z,10.79
2023-02-16T12:58:18.561Z,10.82
2023-02-16T12:58:57.539Z,10.87
2023-02-16T12:59:57.546Z,10.81
2023-02-16T13:00:57.564Z,10.96
2023-02-16T13:01:57.521Z,10.96
2023-02-16T13:02:57.510Z,11.00
2023-02-16T13:04:18.509Z,11.11
2023-02-16T13:04:57.490Z,11.07
2023-02-16T13:05:57.488Z,11.08
2023-02-16T13:06:57.476Z,11.10
2023-02-16T13:07:57.469Z,11.17
2023-02-16T13:08:57.463Z,11.15
2023-02-16T13:10:18.461Z,11.14
2023-02-16T13:10:57.453Z,11.12